Time;durP1;ratioP1;P1;durP2;ratioP2;P2;SDS_P1;SDS_P2;PMS_P1;PMS_P2;Temp;Humidity;BMP_temperature;BMP_pressure;BME280_temperature;BME280_humidity;BME280_pressure;Samples;Min_cycle;Max_cycle;Signal;HPM_P1;HPM_P2
2022/08/09 00:01:09;;;;;;;;;7.50;7.00;;;;;25.57;36.14;101891.88;5056141;28;53977;-60
2022/08/09 00:03:34;;;;;;;;;9.25;8.50;;;;;25.58;35.93;101890.06;5055035;28;45893;-60
2022/08/09 00:05:59;;;;;;;;;11.00;8.00;;;;;25.59;36.12;101892.66;5056957;28;45280;-60
2022/08/09 00:08:25;;;;;;;;;10.50;9.00;;;;;25.57;35.85;101894.53;5055621;28;46348;-60
2022/08/09 00:10:50;;;;;;;;;8.25;8.00;;;;;25.57;36.02;101894.53;5055828;28;45444;-60
2022/08/09 00:13:15;;;;;;;;;9.33;7.67;;;;;25.58;36.10;101895.38;5055902;28;58492;-60
2022/08/09 00:15:41;;;;;;;;;8.00;8.00;;;;;25.58;35.65;101900.69;5056837;28;45620;-60
2022/08/09 00:18:06;;;;;;;;;8.00;8.00;;;;;25.56;36.03;101892.81;5056542;28;46238;-58
2022/08/09 00:20:31;;;;;;;;;7.00;7.00;;;;;25.56;36.27;101886.69;5057132;28;45948;-61
2022/08/09 00:22:57;;;;;;;;;9.00;7.25;;;;;25.56;36.35;101887.50;5068379;28;45294;-59
2022/08/09 00:25:22;;;;;;;;;8.50;8.00;;;;;25.55;36.22;101883.16;5079766;28;45394;-60
2022/08/09 00:27:47;;;;;;;;;7.50;7.50;;;;;25.56;35.91;101884.88;5064132;28;46112;-56
2022/08/09 00:30:13;;;;;;;;;8.00;8.00;;;;;25.56;36.41;101884.88;5056365;28;45534;-60
2022/08/09 00:32:38;;;;;;;;;7.75;7.75;;;;;25.56;36.12;101887.50;5055921;28;45749;-60
2022/08/09 00:35:05;;;;;;;;;6.25;5.75;;;;;25.55;36.27;101877.84;5055573;28;45205;-61
2022/08/09 00:37:31;;;;;;;;;10.50;8.00;;;;;25.54;36.29;101881.44;5057633;28;46209;-60
2022/08/09 00:39:56;;;;;;;;;11.25;7.00;;;;;25.55;36.01;101874.34;5071382;28;45412;-60
2022/08/09 00:42:21;;;;;;;;;7.50;6.75;;;;;25.53;35.98;101871.75;5067949;28;45319;-48
2022/08/09 00:44:47;;;;;;;;;7.00;7.00;;;;;25.53;36.18;101869.09;5064447;28;45350;-54
2022/08/09 00:47:12;;;;;;;;;10.50;8.00;;;;;25.52;36.15;101872.72;5058174;28;46312;-51
2022/08/09 00:49:37;;;;;;;;;7.75;7.75;;;;;25.50;36.26;101871.97;5056230;28;45374;-59
2022/08/09 00:52:04;;;;;;;;;8.75;7.00;;;;;25.51;36.29;101873.69;5056099;28;45379;-57
2022/08/09 00:54:29;;;;;;;;;8.00;8.00;;;;;25.50;36.50;101871.09;5056039;28;45360;-54
2022/08/09 00:56:55;;;;;;;;;7.50;7.00;;;;;25.50;36.49;101876.41;5056099;28;47246;-58
2022/08/09 00:59:21;;;;;;;;;7.00;6.25;;;;;25.49;36.40;101875.56;5056011;28;45401;-60
2022/08/09 01:01:48;;;;;;;;;6.00;6.00;;;;;25.49;36.49;101872.03;5056085;28;45402;-61
2022/08/09 01:04:45;;;;;;;;;6.25;6.25;;;;;25.50;36.04;101876.41;5055642;28;45226;-60
2022/08/09 01:07:29;;;;;;;;;7.25;7.00;;;;;25.49;36.81;101874.69;5054553;28;45662;-61
2022/08/09 01:10:11;;;;;;;;;5.25;5.25;;;;;25.48;36.30;101879.16;5056548;28;45245;-60
2022/08/09 01:12:42;;;;;;;;;5.75;5.75;;;;;25.47;36.43;101874.81;5056004;28;45302;-53
2022/08/09 01:15:11;;;;;;;;;6.00;6.00;;;;;25.47;36.77;101883.59;5058068;28;45423;-48
2022/08/09 01:17:42;;;;;;;;;8.00;7.00;;;;;25.47;36.43;101877.47;5057819;28;48861;-54
2022/08/09 01:20:13;;;;;;;;;6.25;6.25;;;;;25.47;36.48;101875.66;5059364;28;45363;-56
2022/08/09 01:23:08;;;;;;;;;6.25;5.75;;;;;25.46;36.55;101870.44;5057468;28;45289;-48
2022/08/09 01:25:56;;;;;;;;;6.00;6.00;;;;;25.45;36.77;101869.59;5050268;28;45173;-54
2022/08/09 01:28:23;;;;;;;;;5.75;5.75;;;;;25.46;36.76;101870.44;5056932;28;46139;-58
2022/08/09 01:30:53;;;;;;;;;5.00;5.00;;;;;25.46;36.44;101873.09;5060086;28;45261;-61
2022/08/09 01:33:24;;;;;;;;;5.00;5.00;;;;;25.45;36.44;101866.94;5058065;28;45294;-60
2022/08/09 01:35:56;;;;;;;;;4.25;4.25;;;;;25.44;36.74;101877.63;5058504;28;45495;-61
2022/08/09 01:38:26;;;;;;;;;6.00;6.00;;;;;25.44;36.90;101875.84;5058385;28;45438;-59
2022/08/09 01:41:06;;;;;;;;;6.25;6.25;;;;;25.44;36.57;101875.84;5059484;28;45241;-60
2022/08/09 01:43:37;;;;;;;;;6.00;5.00;;;;;25.45;36.52;101879.34;5059265;28;45408;-60
2022/08/09 01:46:04;;;;;;;;;5.25;4.00;;;;;25.44;37.11;101874.97;5059673;28;45244;-59
2022/08/09 01:48:33;;;;;;;;;4.50;4.50;;;;;25.43;37.00;101874.13;5058537;28;46353;-60
2022/08/09 01:51:00;;;;;;;;;4.00;4.00;;;;;25.43;36.59;101871.50;5058760;28;45786;-60
2022/08/09 01:53:27;;;;;;;;;5.00;5.00;;;;;25.43;37.13;101866.19;5058942;28;45357;-61
2022/08/09 01:55:54;;;;;;;;;4.00;4.00;;;;;25.44;36.88;101872.31;5059420;28;45318;-61
2022/08/09 01:58:19;;;;;;;;;5.75;5.75;;;;;25.43;36.82;101865.31;5058057;28;46270;-60
2022/08/09 02:00:46;;;;;;;;;6.25;5.25;;;;;25.43;37.10;101860.00;5058802;28;45335;-60
2022/08/09 02:03:14;;;;;;;;;5.50;5.50;;;;;25.42;36.97;101869.78;5058657;28;45346;-60
2022/08/09 02:05:41;;;;;;;;;5.25;5.00;;;;;25.42;37.47;101869.78;5059056;28;45458;-56
2022/08/09 02:08:11;;;;;;;;;5.00;5.00;;;;;25.41;36.96;101873.38;5058357;28;45302;-60
2022/08/09 02:10:40;;;;;;;;;6.00;4.75;;;;;25.41;37.46;101864.56;5058818;28;45448;-61
2022/08/09 02:13:07;;;;;;;;;7.25;5.00;;;;;25.41;37.55;101867.22;5058562;28;45497;-45
2022/08/09 02:15:37;;;;;;;;;8.75;6.00;;;;;25.41;37.21;101867.22;5059128;28;45250;-61
2022/08/09 02:18:04;;;;;;;;;8.00;5.00;;;;;25.41;37.14;101867.22;5058844;28;45370;-60
2022/08/09 02:20:32;;;;;;;;;7.00;4.75;;;;;25.41;37.58;101861.91;5058367;28;45373;-60
2022/08/09 02:23:14;;;;;;;;;5.50;5.00;;;;;25.41;37.40;101867.22;5062086;28;45170;-55
2022/08/09 02:25:41;;;;;;;;;7.00;4.75;;;;;25.41;37.02;101864.56;5058966;28;45448;-61
2022/08/09 02:28:08;;;;;;;;;5.50;5.25;;;;;25.41;37.58;101859.25;5058125;28;46209;-53
2022/08/09 02:30:39;;;;;;;;;8.25;5.00;;;;;25.39;37.08;101861.97;5058502;28;45245;-61
2022/08/09 02:33:06;;;;;;;;;6.25;5.50;;;;;25.41;37.48;101859.25;5058718;28;45394;-61
2022/08/09 02:35:35;;;;;;;;;5.00;5.00;;;;;25.40;37.48;101861.03;5058730;28;45322;-60
2022/08/09 02:38:04;;;;;;;;;5.00;5.00;;;;;25.39;37.35;101861.13;5059299;28;45973;-60
2022/08/09 02:40:30;;;;;;;;;4.75;4.00;;;;;25.39;37.68;101866.44;5078375;28;45859;-56
2022/08/09 02:42:59;;;;;;;;;6.00;5.00;;;;;25.38;37.78;101864.72;5074267;28;45251;-52
2022/08/09 02:45:33;;;;;;;;;6.00;4.00;;;;;25.38;37.71;101856.75;5058733;28;45306;-54
2022/08/09 02:48:07;;;;;;;;;4.25;4.25;;;;;25.36;37.38;101858.63;5058122;28;46825;-48
2022/08/09 02:50:40;;;;;;;;;4.50;4.25;;;;;25.35;37.10;101852.50;5058289;28;46665;-50
2022/08/09 02:53:15;;;;;;;;;7.00;4.00;;;;;25.35;37.26;101857.81;5058259;28;45361;-51
2022/08/09 02:55:44;;;;;;;;;7.00;5.00;;;;;25.35;37.67;101854.28;5060082;28;45350;-50
2022/08/09 02:58:11;;;;;;;;;5.00;5.00;;;;;25.34;37.45;101847.25;5064607;28;47330;-58
2022/08/09 03:00:39;;;;;;;;;6.50;5.00;;;;;25.34;37.58;101850.78;5060198;28;45353;-60
2022/08/09 03:03:05;;;;;;;;;4.75;3.00;;;;;25.32;37.79;101848.19;5057999;28;45402;-60
2022/08/09 03:05:32;;;;;;;;;5.50;4.00;;;;;25.32;37.51;101856.16;5058114;28;45413;-60
2022/08/09 03:07:59;;;;;;;;;6.00;6.00;;;;;25.31;37.89;101851.81;5056730;28;46116;-54
2022/08/09 03:10:26;;;;;;;;;2.50;2.50;;;;;25.30;38.12;101852.75;5057862;28;45231;-49
2022/08/09 03:12:53;;;;;;;;;4.25;4.25;;;;;25.30;37.57;101855.41;5058129;28;45512;-52
2022/08/09 03:15:20;;;;;;;;;5.00;5.00;;;;;25.28;37.77;101857.31;5057982;28;45580;-46
2022/08/09 03:17:47;;;;;;;;;5.00;5.00;;;;;25.28;38.04;101853.78;5057541;28;46167;-52
2022/08/09 03:20:13;;;;;;;;;4.25;4.25;;;;;25.27;37.64;101863.56;5057130;28;45352;-53
2022/08/09 03:22:43;;;;;;;;;4.00;4.00;;;;;25.27;37.69;101858.25;5064601;28;45176;-54
2022/08/09 03:25:09;;;;;;;;;4.00;3.25;;;;;25.27;37.97;101860.91;5076582;28;45337;-53
2022/08/09 03:27:36;;;;;;;;;4.75;4.75;;;;;25.27;37.84;101865.34;5059293;28;46424;-49
2022/08/09 03:30:02;;;;;;;;;5.00;3.00;;;;;25.24;37.79;101861.09;5057149;28;45291;-47
2022/08/09 03:32:30;;;;;;;;;5.75;5.00;;;;;25.26;38.23;101866.28;5057321;28;45299;-45
2022/08/09 03:34:56;;;;;;;;;4.25;4.25;;;;;25.24;37.71;101866.38;5058316;28;45315;-51
2022/08/09 03:37:21;;;;;;;;;6.75;4.00;;;;;25.24;37.91;101866.38;5072769;28;46887;-59
2022/08/09 03:39:47;;;;;;;;;5.00;5.00;;;;;25.22;38.06;101867.44;5057475;28;45404;-60
2022/08/09 03:42:13;;;;;;;;;4.00;4.00;;;;;25.22;37.80;101868.28;5055679;28;45396;-60
2022/08/09 03:44:38;;;;;;;;;4.75;4.75;;;;;25.22;38.23;101868.28;5057406;28;45283;-58
2022/08/09 03:47:04;;;;;;;;;4.75;4.75;;;;;25.20;37.69;101864.00;5056937;28;46246;-60
2022/08/09 03:49:30;;;;;;;;;5.50;5.00;;;;;25.19;38.27;101857.84;5056824;28;45435;-59
2022/08/09 03:51:59;;;;;;;;;5.50;5.50;;;;;25.20;37.94;101861.34;5057605;28;45403;-61
2022/08/09 03:54:28;;;;;;;;;6.00;4.75;;;;;25.19;38.29;101852.53;5056808;28;45280;-60
2022/08/09 03:56:55;;;;;;;;;6.50;5.00;;;;;25.18;37.89;101856.16;5057039;28;46943;-61
2022/08/09 03:59:21;;;;;;;;;5.50;4.00;;;;;25.18;37.86;101850.84;5056286;28;45405;-61
2022/08/09 04:01:49;;;;;;;;;6.50;5.00;;;;;25.17;38.00;101854.44;5056899;28;45361;-60
2022/08/09 04:04:15;;;;;;;;;4.75;4.75;;;;;25.17;38.17;101855.28;5055564;28;45366;-61
2022/08/09 04:06:41;;;;;;;;;5.50;4.25;;;;;25.17;38.20;101857.09;5056998;28;45282;-61
2022/08/09 04:09:06;;;;;;;;;4.75;4.75;;;;;25.17;38.39;101854.44;5056755;28;45343;-55
2022/08/09 04:11:49;;;;;;;;;4.00;4.00;;;;;25.16;38.15;101868.66;5056897;28;45382;-60
2022/08/09 04:14:20;;;;;;;;;5.50;4.00;;;;;25.17;37.99;101859.75;5056629;28;45208;-61
2022/08/09 04:16:46;;;;;;;;;5.25;4.00;;;;;25.15;38.50;101856.31;5056540;28;46122;-60
2022/08/09 04:19:12;;;;;;;;;4.50;4.50;;;;;25.16;37.97;101866.00;5061401;28;45189;-60
2022/08/09 04:21:38;;;;;;;;;5.75;4.00;;;;;25.16;38.56;101868.66;5069687;28;45319;-60
2022/08/09 04:24:04;;;;;;;;;4.50;4.00;;;;;25.15;37.98;101872.25;5058680;28;45369;-61
2022/08/09 04:26:29;;;;;;;;;5.75;5.00;;;;;25.15;38.01;101877.53;5056139;28;46020;-58
2022/08/09 04:28:54;;;;;;;;;6.00;5.50;;;;;25.15;37.89;101872.25;5056413;28;47705;-60
2022/08/09 04:31:19;;;;;;;;;5.25;4.75;;;;;25.14;38.40;101871.38;5055657;28;53433;-59
2022/08/09 04:33:45;;;;;;;;;5.75;5.00;;;;;25.14;38.16;101876.69;5056342;28;45532;-60
2022/08/09 04:36:10;;;;;;;;;5.00;5.00;;;;;25.14;38.65;101876.69;5056645;28;46581;-61
2022/08/09 04:38:35;;;;;;;;;5.00;5.00;;;;;25.15;38.50;101882.84;5056306;28;47189;-62
2022/08/09 04:41:01;;;;;;;;;7.75;5.00;;;;;25.13;37.95;101885.59;5064727;28;45269;-52
2022/08/09 04:43:26;;;;;;;;;5.00;4.00;;;;;25.13;38.60;101887.38;5078382;28;44856;-61
2022/08/09 04:45:51;;;;;;;;;3.00;3.00;;;;;25.14;37.98;101889.09;5060924;28;56324;-61
2022/08/09 04:48:16;;;;;;;;;7.00;5.00;;;;;25.14;38.42;101891.75;5056031;28;45379;-61
2022/08/09 04:50:43;;;;;;;;;4.50;4.25;;;;;25.12;38.15;101893.63;5058571;28;45813;-58
2022/08/09 04:53:09;;;;;;;;;7.00;5.75;;;;;25.11;38.71;101886.63;5059738;28;45385;-60
2022/08/09 04:55:36;;;;;;;;;0.25;0.00;;;;;25.11;38.29;101894.56;5059191;28;45956;-56
2022/08/09 04:58:02;;;;;;;;;5.00;5.00;;;;;25.10;38.33;101887.56;5059965;28;45306;-55
2022/08/09 05:00:28;;;;;;;;;5.00;5.00;;;;;25.10;38.80;101891.09;5059751;28;45449;-46
2022/08/09 05:02:55;;;;;;;;;3.25;3.25;;;;;25.10;38.76;101895.50;5061814;28;45339;-60
2022/08/09 05:05:21;;;;;;;;;5.25;5.25;;;;;25.09;38.48;101893.81;5060871;28;45526;-59
2022/08/09 05:07:46;;;;;;;;;5.50;4.25;;;;;25.09;38.24;101888.50;5060821;28;45389;-50
2022/08/09 05:10:13;;;;;;;;;5.75;5.50;;;;;25.09;38.62;101891.16;5069079;28;45531;-49
2022/08/09 05:12:38;;;;;;;;;6.00;6.00;;;;;25.09;38.10;101894.69;5072051;28;45330;-50
2022/08/09 05:15:04;;;;;;;;;9.75;7.50;;;;;25.09;38.44;101891.16;5059710;28;46295;-55
2022/08/09 05:17:30;;;;;;;;;7.00;5.25;;;;;25.08;38.28;101895.63;5058765;28;45429;-49
2022/08/09 05:19:55;;;;;;;;;10.00;6.25;;;;;25.09;38.88;101893.81;5059607;28;45337;-56
2022/08/09 05:22:21;;;;;;;;;6.50;6.00;;;;;25.09;38.67;101899.97;5073940;28;45536;-57
2022/08/09 05:24:46;;;;;;;;;7.75;6.25;;;;;25.08;38.80;101892.97;5069174;28;58731;-60
2022/08/09 05:27:11;;;;;;;;;9.75;5.75;;;;;25.09;38.98;101893.81;5059164;28;45389;-56
2022/08/09 05:29:37;;;;;;;;;9.50;6.50;;;;;25.09;38.91;101901.75;5059680;28;45279;-59
2022/08/09 05:32:02;;;;;;;;;13.50;5.25;;;;;25.10;38.96;101906.13;5059454;28;45595;-59
2022/08/09 05:34:30;;;;;;;;;5.50;4.25;;;;;25.11;38.54;101907.84;5058420;28;47565;-49
2022/08/09 05:36:55;;;;;;;;;10.75;7.00;;;;;25.10;38.54;101907.00;5059465;28;45735;-60
2022/08/09 05:39:24;;;;;;;;;6.25;5.50;;;;;25.10;38.96;101909.66;5058917;28;45555;-56
2022/08/09 05:41:50;;;;;;;;;8.25;5.75;;;;;25.11;39.09;101907.84;5059365;28;45472;-58
2022/08/09 05:44:16;;;;;;;;;5.50;4.75;;;;;25.12;39.22;101910.44;5057576;28;47054;-56
2022/08/09 05:46:41;;;;;;;;;5.25;5.00;;;;;25.13;38.60;101913.91;5058906;28;45818;-59
2022/08/09 05:49:07;;;;;;;;;4.50;4.25;;;;;25.12;39.06;101914.84;5058585;28;45374;-59
2022/08/09 05:51:32;;;;;;;;;5.00;5.00;;;;;25.11;39.11;101907.84;5059611;28;45248;-60
2022/08/09 05:53:58;;;;;;;;;7.33;5.00;;;;;25.11;39.35;101915.81;5057472;28;65753;-45
2022/08/09 05:56:24;;;;;;;;;10.25;8.00;;;;;25.08;39.36;101913.34;5058880;28;45219;-61
2022/08/09 05:58:50;;;;;;;;;8.50;5.75;;;;;25.04;39.05;101920.59;5057701;28;45486;-56
2022/08/09 06:01:15;;;;;;;;;8.25;7.00;;;;;24.99;38.55;101918.22;5058868;28;45295;-61
2022/08/09 06:03:40;;;;;;;;;5.00;5.00;;;;;24.93;39.20;101915.94;5058336;28;46060;-60
2022/08/09 06:06:06;;;;;;;;;6.50;6.50;;;;;24.88;38.75;101911.84;5057577;28;45408;-52
2022/08/09 06:08:32;;;;;;;;;6.25;5.00;;;;;24.82;38.79;101918.34;5057634;28;45451;-61
2022/08/09 06:10:57;;;;;;;;;8.75;7.75;;;;;24.76;39.01;101919.53;5058575;28;45660;-51
2022/08/09 06:13:24;;;;;;;;;8.25;6.00;;;;;24.72;38.73;101920.63;5058754;28;45927;-59
2022/08/09 06:15:50;;;;;;;;;5.00;4.75;;;;;24.68;39.33;101927.91;5060534;28;45840;-61
2022/08/09 06:18:15;;;;;;;;;8.25;8.00;;;;;24.64;39.37;101921.03;5077100;28;44760;-54
2022/08/09 06:20:41;;;;;;;;;6.25;5.50;;;;;24.59;39.20;101923.09;5071550;28;45375;-54
2022/08/09 06:23:06;;;;;;;;;6.00;5.00;;;;;24.54;39.31;101935.75;5058730;28;46079;-58
2022/08/09 06:25:32;;;;;;;;;8.25;5.50;;;;;24.50;39.28;101934.22;5059430;28;45509;-56
2022/08/09 06:27:58;;;;;;;;;8.00;7.00;;;;;24.48;39.85;101934.28;5058451;28;45398;-45
2022/08/09 06:30:23;;;;;;;;;5.25;5.25;;;;;24.46;39.42;101941.50;5059058;28;45523;-61
2022/08/09 06:32:51;;;;;;;;;6.50;6.00;;;;;24.44;39.80;101943.38;5060728;28;45405;-60
2022/08/09 06:35:17;;;;;;;;;9.00;5.00;;;;;24.41;39.75;101946.16;5060727;28;45381;-56
2022/08/09 06:37:42;;;;;;;;;6.75;5.00;;;;;24.41;39.54;101946.16;5058169;28;45347;-61
2022/08/09 06:40:08;;;;;;;;;6.00;6.00;;;;;24.38;39.97;101946.31;5057001;28;45479;-60
2022/08/09 06:42:33;;;;;;;;;6.00;3.50;;;;;24.36;39.73;101942.94;5060994;28;45481;-60
2022/08/09 06:44:59;;;;;;;;;5.25;5.00;;;;;24.35;40.17;101950.00;5070628;28;46240;-51
2022/08/09 06:47:24;;;;;;;;;7.00;5.75;;;;;24.33;39.90;101948.38;5063155;28;45552;-55
2022/08/09 06:49:51;;;;;;;;;9.00;6.75;;;;;24.32;40.20;101946.69;5059807;28;45526;-54
2022/08/09 06:52:16;;;;;;;;;7.50;6.50;;;;;24.30;39.76;101944.13;5058625;28;46621;-55
2022/08/09 06:54:42;;;;;;;;;7.50;6.00;;;;;24.29;40.43;101947.69;5058993;28;45284;-54
2022/08/09 06:57:08;;;;;;;;;6.50;5.50;;;;;24.28;39.86;101945.13;5058471;28;45437;-47
2022/08/09 06:59:33;;;;;;;;;8.75;7.00;;;;;24.26;39.96;101945.22;5058192;28;45326;-55
2022/08/09 07:01:59;;;;;;;;;8.50;5.25;;;;;24.26;40.25;101952.28;5058072;28;46227;-48
2022/08/09 07:04:24;;;;;;;;;6.25;6.25;;;;;24.24;40.19;101955.91;5057822;28;45278;-54
2022/08/09 07:06:49;;;;;;;;;6.00;6.00;;;;;24.23;40.03;101950.66;5058088;28;45233;-54
2022/08/09 07:09:15;;;;;;;;;8.50;7.00;;;;;24.22;40.45;101952.47;5057577;28;45228;-51
2022/08/09 07:11:40;;;;;;;;;10.25;8.25;;;;;24.22;40.48;101951.59;5057101;28;46249;-55
2022/08/09 07:14:06;;;;;;;;;7.50;7.50;;;;;24.21;40.50;101957.84;5057236;28;46119;-48
2022/08/09 07:16:31;;;;;;;;;6.25;6.25;;;;;24.19;40.49;101960.56;5057684;28;45267;-50
2022/08/09 07:18:57;;;;;;;;;9.25;6.00;;;;;24.19;40.11;101963.22;5059704;28;45325;-56
2022/08/09 07:21:22;;;;;;;;;7.00;6.00;;;;;24.20;40.21;101958.75;5063983;28;52703;-46
2022/08/09 07:23:47;;;;;;;;;9.00;7.75;;;;;24.21;40.67;101961.34;5067744;28;45419;-51
2022/08/09 07:26:13;;;;;;;;;8.25;6.00;;;;;24.22;40.68;101962.19;5066851;28;51158;-59
2022/08/09 07:28:38;;;;;;;;;6.50;6.00;;;;;24.23;40.47;101966.56;5061514;28;45522;-60
2022/08/09 07:31:04;;;;;;;;;7.25;7.00;;;;;24.23;40.11;101955.97;5056802;28;45890;-59
2022/08/09 07:33:32;;;;;;;;;5.25;5.25;;;;;24.24;40.70;101965.63;5056912;28;45810;-54
2022/08/09 07:35:57;;;;;;;;;9.00;7.00;;;;;24.24;40.65;101965.63;5057477;28;45447;-60
2022/08/09 07:38:22;;;;;;;;;8.25;7.75;;;;;24.25;40.39;101962.03;5056893;28;45235;-61
2022/08/09 07:40:48;;;;;;;;;7.25;7.00;;;;;24.26;40.75;101962.88;5056607;28;47317;-61
2022/08/09 07:43:13;;;;;;;;;8.00;6.25;;;;;24.27;40.27;101964.59;5055874;28;55146;-60
2022/08/09 07:45:39;;;;;;;;;13.00;9.00;;;;;24.29;40.25;101962.72;5057475;28;45695;-57
2022/08/09 07:48:05;;;;;;;;;15.25;8.75;;;;;24.31;40.68;101960.84;5057576;28;45320;-55
2022/08/09 07:50:30;;;;;;;;;36.00;20.50;;;;;24.32;40.73;101947.50;5056633;28;46905;-57
2022/08/09 07:52:56;;;;;;;;;12.75;8.50;;;;;24.34;40.21;101950.94;5057508;28;45292;-56
2022/08/09 07:55:22;;;;;;;;;10.75;8.00;;;;;24.36;40.20;101954.38;5057019;28;45280;-55
2022/08/09 07:57:49;;;;;;;;;10.50;8.00;;;;;24.38;40.53;101954.28;5058673;28;45616;-54
2022/08/09 08:00:17;;;;;;;;;8.25;7.25;;;;;24.38;40.55;101963.09;5059112;28;46456;-56
2022/08/09 08:02:43;;;;;;;;;10.00;7.75;;;;;24.41;40.00;101961.22;5056875;28;45230;-54
2022/08/09 08:05:09;;;;;;;;;10.25;7.00;;;;;24.42;40.58;101958.47;5056812;28;45369;-54
2022/08/09 08:07:34;;;;;;;;;10.00;7.00;;;;;24.43;40.38;101964.63;5057093;28;45200;-56
2022/08/09 08:09:59;;;;;;;;;8.00;7.25;;;;;24.44;40.01;101956.59;5057204;28;47403;-54
2022/08/09 08:12:24;;;;;;;;;7.00;6.00;;;;;24.46;39.91;101956.50;5056843;28;50131;-53
2022/08/09 08:14:50;;;;;;;;;5.25;5.25;;;;;24.47;40.27;101955.56;5065995;28;45437;-53
2022/08/09 08:17:16;;;;;;;;;9.50;8.00;;;;;24.48;39.82;101957.28;5080473;28;44864;-54
2022/08/09 08:19:41;;;;;;;;;8.75;7.00;;;;;24.49;40.29;101961.66;5059134;28;45407;-56
2022/08/09 08:22:06;;;;;;;;;12.00;9.25;;;;;24.50;39.91;101963.38;5055448;28;61427;-51
2022/08/09 08:24:32;;;;;;;;;7.25;7.25;;;;;24.52;40.35;101966.78;5057737;28;45318;-55
2022/08/09 08:26:57;;;;;;;;;10.00;7.00;;;;;24.54;39.88;101968.41;5058229;28;45521;-55
2022/08/09 08:29:25;;;;;;;;;11.50;7.25;;;;;24.55;40.43;101964.84;5054785;28;56306;-53
2022/08/09 08:31:51;;;;;;;;;10.25;7.75;;;;;24.58;39.62;101966.44;5056422;28;45735;-54
2022/08/09 08:34:16;;;;;;;;;9.75;7.75;;;;;24.58;39.85;101966.44;5055928;28;45379;-55
2022/08/09 08:36:41;;;;;;;;;11.00;8.00;;;;;24.61;39.68;101973.38;5056580;28;45185;-54
2022/08/09 08:39:07;;;;;;;;;12.50;8.50;;;;;24.62;40.08;101969.78;5055854;28;48397;-54
2022/08/09 08:41:34;;;;;;;;;7.25;7.00;;;;;24.63;39.89;101959.13;5056533;28;45236;-55
2022/08/09 08:44:00;;;;;;;;;10.25;6.75;;;;;24.65;40.01;101962.50;5056536;28;45433;-55
2022/08/09 08:46:39;;;;;;;;;8.50;7.00;;;;;24.64;40.14;101958.16;5056736;28;45914;-54
2022/08/09 08:49:06;;;;;;;;;8.75;7.00;;;;;24.65;40.07;101959.84;5056809;28;45477;-53
2022/08/09 08:51:32;;;;;;;;;8.00;8.00;;;;;24.67;39.46;101963.28;5064266;28;45288;-55
2022/08/09 08:53:58;;;;;;;;;9.25;5.75;;;;;24.69;39.56;101963.25;5076511;28;45891;-54
2022/08/09 08:56:24;;;;;;;;;6.75;6.75;;;;;24.70;39.93;101955.19;5059511;28;45170;-51
2022/08/09 08:58:50;;;;;;;;;8.25;7.00;;;;;24.72;39.94;101956.91;5056136;28;46100;-54
2022/08/09 09:01:17;;;;;;;;;10.25;7.25;;;;;24.75;39.86;101962.06;5056095;28;45215;-55
2022/08/09 09:03:43;;;;;;;;;6.50;6.00;;;;;24.74;39.36;101955.88;5055537;28;45409;-55
2022/08/09 09:06:12;;;;;;;;;8.00;7.25;;;;;24.76;39.72;101955.78;5056286;28;45602;-54
2022/08/09 09:08:39;;;;;;;;;7.25;6.00;;;;;24.78;39.39;101959.22;5055910;28;47119;-55
2022/08/09 09:11:06;;;;;;;;;7.25;6.00;;;;;24.79;39.17;101960.91;5056207;28;45381;-55
2022/08/09 09:13:37;;;;;;;;;9.25;7.25;;;;;24.80;39.43;101967.94;5056279;28;45323;-55
2022/08/09 09:16:03;;;;;;;;;8.00;8.00;;;;;24.81;39.16;101967.00;5056465;28;45555;-55
2022/08/09 09:18:28;;;;;;;;;7.00;7.00;;;;;24.82;39.16;101955.47;5071580;28;46418;-54
2022/08/09 09:20:54;;;;;;;;;7.75;6.75;;;;;24.82;39.31;101961.59;5067997;28;45350;-56
2022/08/09 09:23:40;;;;;;;;;9.00;8.00;;;;;24.83;38.99;101960.66;5056326;28;45219;-55
2022/08/09 09:26:05;;;;;;;;;9.75;8.25;;;;;24.85;38.74;101950.00;5056225;28;45769;-55
2022/08/09 09:28:32;;;;;;;;;9.75;7.25;;;;;24.88;39.33;101965.69;5055619;28;45307;-53
2022/08/09 09:31:00;;;;;;;;;8.50;8.00;;;;;24.90;38.80;101957.69;5056073;28;45365;-54
2022/08/09 09:33:36;;;;;;;;;9.75;8.00;;;;;24.91;38.86;101954.94;5055870;28;45381;-54
2022/08/09 09:36:03;;;;;;;;;7.00;6.25;;;;;24.93;39.20;101953.06;5060149;28;45381;-56
2022/08/09 09:38:48;;;;;;;;;13.00;12.50;;;;;24.95;39.03;101952.97;5064498;28;45550;-56
2022/08/09 09:41:22;;;;;;;;;12.50;11.25;;;;;24.96;39.49;101947.59;5061007;28;45328;-56
2022/08/09 09:43:49;;;;;;;;;13.50;10.00;;;;;24.98;38.91;101937.72;5060725;28;45376;-55
2022/08/09 09:46:14;;;;;;;;;14.75;12.00;;;;;25.00;39.66;101938.50;5059376;28;45562;-55
2022/08/09 09:49:02;;;;;;;;;12.25;12.25;;;;;25.01;39.09;101940.22;5059036;28;45590;-55
2022/08/09 09:51:30;;;;;;;;;11.00;11.00;;;;;25.04;39.15;101946.28;5059274;28;45415;-59
2022/08/09 09:54:06;;;;;;;;;10.25;10.00;;;;;25.06;38.99;101937.28;5059405;28;45350;-54
2022/08/09 09:56:33;;;;;;;;;35.75;28.75;;;;;25.07;39.63;101938.16;5059295;28;45651;-56
2022/08/09 09:58:59;;;;;;;;;85.50;69.25;;;;;25.10;39.18;101928.22;5056840;28;45986;-56
2022/08/09 10:01:25;;;;;;;;;214.75;177.50;;;;;25.12;38.99;101942.25;5058674;28;45337;-57
2022/08/09 10:03:52;;;;;;;;;231.75;179.75;;;;;25.14;39.30;101939.50;5058954;28;45332;-56
2022/08/09 10:06:17;;;;;;;;;209.75;170.25;;;;;25.15;39.10;101941.22;5058970;28;45464;-56
2022/08/09 10:08:45;;;;;;;;;163.75;131.75;;;;;25.16;39.33;101933.16;5061772;28;46117;-56
2022/08/09 10:11:27;;;;;;;;;82.75;72.25;;;;;25.17;38.65;101929.56;5060223;28;45333;-56
2022/08/09 10:13:53;;;;;;;;;75.50;62.00;;;;;25.19;38.78;101931.28;5064882;28;45283;-57
2022/08/09 10:16:34;;;;;;;;;76.25;61.25;;;;;25.20;38.80;101936.47;5079935;28;45675;-57
2022/08/09 10:19:05;;;;;;;;;48.00;35.50;;;;;25.21;38.36;101935.53;5061321;28;45668;-57
2022/08/09 10:21:32;;;;;;;;;29.50;26.00;;;;;25.22;38.87;101929.28;5058051;28;45864;-56
2022/08/09 10:24:03;;;;;;;;;46.00;36.25;;;;;25.24;38.24;101922.09;5058742;28;45373;-54
2022/08/09 10:26:29;;;;;;;;;34.00;30.00;;;;;25.25;38.36;101928.25;5058665;28;45395;-53
2022/08/09 10:28:56;;;;;;;;;44.25;30.75;;;;;25.26;38.70;101930.84;5058394;28;45406;-56
2022/08/09 10:31:21;;;;;;;;;17.50;16.25;;;;;25.27;38.28;101924.59;5058992;28;45863;-57
2022/08/09 10:33:47;;;;;;;;;24.50;23.50;;;;;25.28;38.45;101920.13;5060695;28;45310;-56
2022/08/09 10:36:14;;;;;;;;;16.50;13.50;;;;;25.28;38.69;101925.44;5078454;28;45303;-56
2022/08/09 10:38:43;;;;;;;;;17.50;15.75;;;;;25.30;38.10;101920.88;5080333;28;46216;-57
2022/08/09 10:41:09;;;;;;;;;14.50;14.00;;;;;25.30;38.51;101921.72;5080057;28;45377;-57
2022/08/09 10:43:36;;;;;;;;;19.50;14.50;;;;;25.30;38.45;101921.72;5082500;28;44821;-57
2022/08/09 10:46:16;;;;;;;;;14.25;11.25;;;;;25.32;38.05;101919.00;5080115;28;44865;-56
2022/08/09 10:48:57;;;;;;;;;12.25;11.00;;;;;25.32;38.02;101914.53;5077433;28;46043;-56
2022/08/09 10:51:48;;;;;;;;;16.00;14.00;;;;;25.32;38.21;101917.19;5078960;28;45351;-56
2022/08/09 10:54:14;;;;;;;;;17.00;13.25;;;;;25.34;37.88;101909.16;5078335;28;44735;-56
2022/08/09 10:56:41;;;;;;;;;14.00;11.75;;;;;25.35;38.70;101913.53;5080217;28;44750;-56
2022/08/09 10:59:22;;;;;;;;;16.75;11.50;;;;;25.36;37.91;101911.72;5064639;28;46232;-55
2022/08/09 11:01:51;;;;;;;;;15.75;14.25;;;;;25.36;37.85;101914.38;5063490;28;45302;-56
2022/08/09 11:04:28;;;;;;;;;14.75;12.75;;;;;25.37;37.97;101902.81;5058847;28;45430;-55
2022/08/09 11:06:59;;;;;;;;;12.00;12.00;;;;;25.38;38.04;101905.38;5058246;28;45243;-57
2022/08/09 11:09:37;;;;;;;;;12.25;11.00;;;;;25.38;37.98;101909.81;5057873;28;46330;-57
2022/08/09 11:12:14;;;;;;;;;12.75;11.00;;;;;25.38;37.89;101900.06;5057997;28;45288;-56
2022/08/09 11:14:55;;;;;;;;;10.00;8.00;;;;;25.39;37.79;101891.16;5058443;28;46196;-57
2022/08/09 11:17:20;;;;;;;;;10.50;10.25;;;;;25.39;37.78;101904.41;5073995;28;45439;-56
2022/08/09 11:20:02;;;;;;;;;13.00;11.33;;;;;25.39;37.51;101904.41;5069738;28;46172;-55
2022/08/09 11:22:40;;;;;;;;;11.25;9.75;;;;;25.40;37.71;101899.97;5057672;28;45306;-51
2022/08/09 11:25:12;;;;;;;;;12.75;10.00;;;;;25.41;37.72;101893.75;5059661;28;45358;-55